Bammel, Texas
Current Conditions -  °F | °C
As of 10:35 PM on Sunday 21 Dec 2014 (Local Time) from KTME Reporting Station
Overcast Overcast  
Wind Chill: 55°   Ceiling: 900
Heat Index: 55°   Visibility: 7mi
Dew Point: 54°   Wind: 8mph
Humidity: 94%   Direction: 160°SSE
Pressure: 29.9"   Gusts: NA
Location:  29.932°N, 95.7377°W
Report Text: KTME 220435Z AUTO 16007KT 7SM BKN009 OVC040 13/12 A2990 RMK AO2
Loading
Personal Weather Stations






























Interactive Weather Map New forecast layout! Learn more

10-Day Weather Forecast

Advertisements
Track Severe Weather on mobile